createdAt,value
2018-09-17T00:00:29.164Z,20.75
2018-09-17T00:02:58.263Z,20.74
2018-09-17T00:05:27.496Z,20.72
2018-09-17T00:07:56.890Z,20.67
2018-09-17T00:10:26.136Z,20.64
2018-09-17T00:12:55.331Z,20.49
2018-09-17T00:15:24.647Z,20.43
2018-09-17T00:17:53.991Z,20.34
2018-09-17T00:20:23.195Z,20.15
2018-09-17T00:22:52.487Z,20.02
2018-09-17T00:25:21.568Z,20.19
2018-09-17T00:27:50.823Z,20.24
2018-09-17T00:30:20.133Z,20.13
2018-09-17T00:32:49.430Z,20.10
2018-09-17T00:35:18.729Z,20.07
2018-09-17T00:37:48.120Z,20.06
2018-09-17T00:40:17.482Z,19.95
2018-09-17T00:42:46.941Z,19.85
2018-09-17T00:45:16.543Z,19.80
2018-09-17T00:47:45.848Z,19.78
2018-09-17T00:50:15.025Z,19.82
2018-09-17T00:52:44.175Z,19.94
2018-09-17T00:55:13.737Z,19.95
2018-09-17T00:57:43.262Z,19.90
2018-09-17T01:00:12.604Z,19.93
2018-09-17T01:02:41.992Z,20.04
2018-09-17T01:05:10.976Z,20.00
2018-09-17T01:07:40.184Z,19.94
2018-09-17T01:10:09.519Z,19.87
2018-09-17T01:12:38.626Z,19.85
2018-09-17T01:15:08.025Z,19.83
2018-09-17T01:17:37.075Z,19.82
2018-09-17T01:20:06.544Z,19.75
2018-09-17T01:22:35.767Z,19.86
2018-09-17T01:25:05.006Z,19.73
2018-09-17T01:27:34.319Z,19.49
2018-09-17T01:30:03.331Z,19.32
2018-09-17T01:32:32.703Z,19.39
2018-09-17T01:35:01.907Z,19.61
2018-09-17T01:37:31.141Z,19.63
2018-09-17T01:40:00.423Z,19.58
2018-09-17T01:42:29.319Z,19.55
2018-09-17T01:44:58.695Z,19.46
2018-09-17T01:47:27.723Z,19.31
2018-09-17T01:49:56.928Z,19.20
2018-09-17T01:52:26.122Z,19.07
2018-09-17T01:54:55.477Z,18.95
2018-09-17T01:57:24.728Z,18.91
2018-09-17T01:59:53.715Z,18.92
2018-09-17T02:02:22.710Z,18.88
2018-09-17T02:04:51.855Z,19.01
2018-09-17T02:07:21.028Z,19.09
2018-09-17T02:09:50.043Z,19.07
2018-09-17T02:12:19.443Z,19.04
2018-09-17T02:14:48.841Z,19.00
2018-09-17T02:17:17.855Z,18.92
2018-09-17T02:19:47.128Z,18.84
2018-09-17T02:22:16.339Z,18.84
2018-09-17T02:24:45.692Z,18.80
2018-09-17T02:27:15.238Z,18.81
2018-09-17T02:29:44.539Z,18.97
2018-09-17T02:32:13.787Z,19.12
2018-09-17T02:34:43.233Z,19.20
2018-09-17T02:37:12.388Z,19.15
2018-09-17T02:39:41.403Z,19.10
2018-09-17T02:42:10.628Z,19.03
2018-09-17T02:44:40.020Z,19.06
2018-09-17T02:47:09.243Z,19.15
2018-09-17T02:49:38.458Z,19.17
2018-09-17T02:52:07.677Z,19.19
2018-09-17T02:54:36.899Z,19.18
2018-09-17T02:57:06.324Z,19.18
2018-09-17T02:59:35.624Z,19.23
2018-09-17T03:02:05.113Z,19.27
2018-09-17T03:04:34.360Z,19.25
2018-09-17T03:07:03.667Z,19.26
2018-09-17T03:09:32.864Z,19.28
2018-09-17T03:12:02.140Z,19.23
2018-09-17T03:14:31.301Z,19.09
2018-09-17T03:17:15.250Z,19.07
2018-09-17T03:19:45.599Z,19.05
2018-09-17T03:22:15.365Z,19.04
2018-09-17T03:24:44.737Z,19.22
2018-09-17T03:27:14.083Z,19.15
2018-09-17T03:29:43.481Z,19.06
2018-09-17T03:32:12.647Z,19.27
2018-09-17T03:34:41.872Z,19.47
2018-09-17T03:37:11.274Z,19.49
2018-09-17T03:39:40.624Z,19.52
2018-09-17T03:42:09.823Z,19.51
2018-09-17T03:44:39.224Z,19.55
2018-09-17T03:47:08.457Z,19.56
2018-09-17T03:49:37.769Z,19.49
2018-09-17T03:52:06.965Z,19.47
2018-09-17T03:54:36.487Z,19.46
2018-09-17T03:57:05.924Z,19.30
2018-09-17T03:59:35.174Z,19.15
2018-09-17T04:02:04.519Z,19.13
2018-09-17T04:04:34.077Z,19.12
2018-09-17T04:07:03.418Z,19.14
2018-09-17T04:09:32.359Z,19.08
2018-09-17T04:12:01.823Z,19.02
2018-09-17T04:14:31.180Z,19.27
2018-09-17T04:17:00.506Z,19.21
2018-09-17T04:19:29.715Z,19.05
2018-09-17T04:21:58.679Z,18.91
2018-09-17T04:24:28.065Z,18.87
2018-09-17T04:26:57.299Z,18.85
2018-09-17T04:29:26.300Z,18.81
2018-09-17T04:31:55.445Z,18.89
2018-09-17T04:34:24.735Z,18.89
2018-09-17T04:36:54.032Z,18.70
2018-09-17T04:39:24.848Z,18.91
2018-09-17T04:41:54.199Z,18.99
2018-09-17T04:44:23.635Z,18.93
2018-09-17T04:46:53.081Z,18.84
2018-09-17T04:49:22.041Z,18.86
2018-09-17T04:51:51.160Z,18.88
2018-09-17T04:54:20.618Z,18.85
2018-09-17T04:56:49.855Z,18.95
2018-09-17T04:59:19.175Z,18.98
2018-09-17T05:01:48.455Z,19.04
2018-09-17T05:04:17.325Z,19.08
2018-09-17T05:06:46.559Z,19.14
2018-09-17T05:09:15.500Z,19.23
2018-09-17T05:11:44.687Z,19.03
2018-09-17T05:14:14.141Z,19.17
2018-09-17T05:16:43.639Z,19.07
2018-09-17T05:19:12.757Z,19.05
2018-09-17T05:21:41.885Z,19.13
2018-09-17T05:24:11.440Z,19.15
2018-09-17T05:26:40.464Z,19.13
2018-09-17T05:29:09.463Z,19.30
2018-09-17T05:31:38.675Z,19.17
2018-09-17T05:34:08.077Z,19.33
2018-09-17T05:36:37.315Z,19.51
2018-09-17T05:39:09.623Z,19.55
2018-09-17T05:41:38.697Z,19.58
2018-09-17T05:44:08.140Z,19.59
2018-09-17T05:46:37.490Z,19.65
2018-09-17T05:49:06.483Z,19.79
2018-09-17T05:51:35.828Z,19.91
2018-09-17T05:54:04.989Z,19.83
2018-09-17T05:56:34.223Z,19.85
2018-09-17T05:59:03.279Z,19.86
2018-09-17T06:01:32.669Z,20.01
2018-09-17T06:04:01.920Z,20.12
2018-09-17T06:06:31.121Z,20.16
2018-09-17T06:09:00.319Z,20.31
2018-09-17T06:11:29.454Z,20.57
2018-09-17T06:13:58.703Z,20.57
2018-09-17T06:16:28.009Z,20.70
2018-09-17T06:18:57.342Z,20.80
2018-09-17T06:21:26.215Z,20.91
2018-09-17T06:23:55.543Z,21.05
2018-09-17T06:26:24.803Z,21.20
2018-09-17T06:28:53.800Z,21.37
2018-09-17T06:31:22.986Z,21.50
2018-09-17T06:33:52.275Z,21.61
2018-09-17T06:36:21.638Z,21.75
2018-09-17T06:38:50.886Z,21.81
2018-09-17T06:41:20.193Z,21.84
2018-09-17T06:43:49.522Z,21.94
2018-09-17T06:46:18.578Z,22.09
2018-09-17T06:48:47.921Z,22.20
2018-09-17T06:51:17.418Z,22.26
2018-09-17T06:53:46.869Z,22.39
2018-09-17T06:56:16.017Z,22.47
2018-09-17T06:58:45.245Z,22.62
2018-09-17T07:01:14.578Z,22.67
2018-09-17T07:03:43.758Z,22.65
2018-09-17T07:06:12.962Z,22.77
2018-09-17T07:08:42.096Z,22.77
2018-09-17T07:11:11.671Z,22.66
2018-09-17T07:13:41.116Z,22.58
2018-09-17T07:16:10.679Z,22.70
2018-09-17T07:18:39.987Z,22.85
2018-09-17T07:21:08.983Z,22.99
2018-09-17T07:23:38.280Z,23.09
2018-09-17T07:26:07.743Z,23.26
2018-09-17T07:28:36.971Z,23.32
2018-09-17T07:31:06.260Z,23.48
2018-09-17T07:33:35.599Z,23.84
2018-09-17T07:36:04.934Z,24.20
2018-09-17T07:38:34.203Z,24.77
2018-09-17T07:41:03.583Z,25.45
2018-09-17T07:43:32.837Z,26.07
2018-09-17T07:46:02.199Z,26.69
2018-09-17T07:48:31.556Z,27.19
2018-09-17T07:51:00.738Z,27.57
2018-09-17T07:53:29.815Z,27.46
2018-09-17T07:55:59.301Z,27.01
2018-09-17T07:58:28.551Z,26.93
2018-09-17T08:00:57.996Z,26.78
2018-09-17T08:03:27.420Z,26.71
2018-09-17T08:05:56.632Z,26.75
2018-09-17T08:08:25.540Z,26.50
2018-09-17T08:10:54.850Z,26.40
2018-09-17T08:13:24.292Z,26.08
2018-09-17T08:15:53.521Z,26.20
2018-09-17T08:18:22.734Z,26.14
2018-09-17T08:20:51.695Z,26.25
2018-09-17T08:23:21.387Z,26.37
2018-09-17T08:25:50.483Z,26.80
2018-09-17T08:28:19.719Z,27.19
2018-09-17T08:30:48.932Z,27.52
2018-09-17T08:33:18.105Z,27.84
2018-09-17T08:35:47.172Z,28.07
2018-09-17T08:38:16.689Z,28.31
2018-09-17T08:40:45.759Z,28.17
2018-09-17T08:43:14.828Z,27.97
2018-09-17T08:45:44.247Z,27.98
2018-09-17T08:48:13.164Z,27.73
2018-09-17T08:50:42.156Z,27.53
2018-09-17T08:53:11.398Z,27.28
2018-09-17T08:55:45.395Z,27.11
2018-09-17T08:58:19.424Z,26.93
2018-09-17T09:00:53.635Z,26.99
2018-09-17T09:03:31.882Z,27.07
2018-09-17T09:06:06.287Z,27.18
2018-09-17T09:08:35.704Z,27.14
2018-09-17T09:11:10.102Z,26.97
2018-09-17T09:13:44.547Z,26.69
2018-09-17T09:16:13.876Z,26.85
2018-09-17T09:18:43.240Z,27.03
2018-09-17T09:21:12.335Z,26.61
2018-09-17T09:23:41.743Z,26.27
2018-09-17T09:26:10.760Z,26.26
2018-09-17T09:28:39.775Z,26.55
2018-09-17T09:31:09.084Z,27.06
2018-09-17T09:33:38.281Z,27.40
2018-09-17T09:36:07.378Z,27.28
2018-09-17T09:38:36.459Z,27.35
2018-09-17T09:41:05.856Z,27.43
2018-09-17T09:43:35.051Z,27.21
2018-09-17T09:46:03.994Z,27.33
2018-09-17T09:48:33.191Z,27.08
2018-09-17T09:51:02.132Z,27.14
2018-09-17T09:53:31.367Z,27.14
2018-09-17T09:56:00.575Z,27.28
2018-09-17T09:58:29.874Z,27.42
2018-09-17T10:01:04.117Z,27.68
2018-09-17T10:03:38.466Z,28.22
2018-09-17T10:06:07.459Z,28.24
2018-09-17T10:08:43.627Z,28.74
2018-09-17T10:11:17.962Z,29.84
2018-09-17T10:13:52.242Z,30.50
2018-09-17T10:16:21.693Z,30.80
2018-09-17T10:18:56.024Z,32.18
2018-09-17T10:21:25.575Z,31.92
2018-09-17T10:23:54.903Z,32.40
2018-09-17T10:26:23.941Z,34.03
2018-09-17T10:28:53.299Z,35.88
2018-09-17T10:31:22.556Z,36.98
2018-09-17T10:33:52.026Z,37.56
2018-09-17T10:36:21.584Z,37.85
2018-09-17T10:38:50.967Z,38.86
2018-09-17T10:41:20.088Z,38.45
2018-09-17T10:43:49.108Z,38.15
2018-09-17T10:46:18.414Z,39.22
2018-09-17T10:48:47.588Z,40.28
2018-09-17T10:51:16.843Z,40.83
2018-09-17T10:53:46.193Z,40.09
2018-09-17T10:56:15.547Z,38.49
2018-09-17T10:58:44.567Z,36.56
2018-09-17T11:01:13.994Z,35.30
2018-09-17T11:03:43.048Z,33.99
2018-09-17T11:06:12.227Z,33.76
2018-09-17T11:08:41.206Z,34.36
2018-09-17T11:11:10.415Z,35.00
2018-09-17T11:13:39.667Z,35.19
2018-09-17T11:16:08.971Z,34.40
2018-09-17T11:18:39.112Z,33.85
2018-09-17T11:21:08.136Z,35.53
2018-09-17T11:23:37.507Z,36.91
2018-09-17T11:26:06.592Z,38.25
2018-09-17T11:28:35.767Z,39.58
2018-09-17T11:31:05.164Z,40.85
2018-09-17T11:33:34.367Z,41.15
2018-09-17T11:36:03.784Z,41.46
2018-09-17T11:38:33.223Z,42.18
2018-09-17T11:41:02.515Z,42.79
2018-09-17T11:43:31.823Z,43.33
2018-09-17T11:46:00.844Z,43.66
2018-09-17T11:48:30.229Z,43.99
2018-09-17T11:50:59.507Z,43.91
2018-09-17T11:53:28.855Z,43.02
2018-09-17T11:55:58.077Z,41.32
2018-09-17T11:58:27.152Z,41.03
2018-09-17T12:01:00.936Z,41.72
2018-09-17T12:03:35.214Z,42.55
2018-09-17T12:06:05.294Z,42.77
2018-09-17T12:08:34.201Z,42.79
2018-09-17T12:11:03.682Z,42.42
2018-09-17T12:13:32.923Z,40.88
2018-09-17T12:16:02.175Z,41.23
2018-09-17T12:18:31.486Z,41.49
2018-09-17T12:21:00.592Z,42.21
2018-09-17T12:23:29.755Z,42.55
2018-09-17T12:25:59.027Z,42.79
2018-09-17T12:28:27.860Z,42.58
2018-09-17T12:30:57.954Z,42.29
2018-09-17T12:33:27.261Z,42.44
2018-09-17T12:35:56.672Z,42.90
2018-09-17T12:38:26.016Z,42.94
2018-09-17T12:40:55.351Z,42.86
2018-09-17T12:43:24.308Z,42.72
2018-09-17T12:45:53.672Z,42.74
2018-09-17T12:48:22.843Z,41.50
2018-09-17T12:50:52.204Z,41.93
2018-09-17T12:53:21.661Z,42.50
2018-09-17T12:55:51.020Z,42.80
2018-09-17T12:58:19.958Z,42.87
2018-09-17T13:00:49.289Z,42.47
2018-09-17T13:03:18.326Z,42.86
2018-09-17T13:05:47.404Z,42.77
2018-09-17T13:08:16.638Z,42.51
2018-09-17T13:10:46.069Z,42.57
2018-09-17T13:13:15.491Z,41.87
2018-09-17T13:15:49.611Z,41.24
2018-09-17T13:18:18.499Z,41.02
2018-09-17T13:20:47.940Z,40.47
2018-09-17T13:23:17.348Z,40.70
2018-09-17T13:25:46.530Z,39.61
2018-09-17T13:28:16.062Z,38.79
2018-09-17T13:30:45.395Z,37.90
2018-09-17T13:33:14.776Z,37.13
2018-09-17T13:35:43.951Z,36.20
2018-09-17T13:38:13.296Z,35.27
2018-09-17T13:40:42.502Z,34.55
2018-09-17T13:43:11.564Z,33.94
2018-09-17T13:45:40.896Z,33.03
2018-09-17T13:48:10.180Z,32.45
2018-09-17T13:50:39.394Z,31.99
2018-09-17T13:53:08.819Z,31.56
2018-09-17T13:55:38.028Z,31.35
2018-09-17T13:58:07.323Z,31.26
2018-09-17T14:00:36.661Z,30.99
2018-09-17T14:03:05.976Z,30.49
2018-09-17T14:05:35.160Z,30.03
2018-09-17T14:08:04.471Z,30.03
2018-09-17T14:10:33.668Z,30.11
2018-09-17T14:13:02.712Z,30.04
2018-09-17T14:15:32.016Z,29.89
2018-09-17T14:18:01.360Z,29.91
2018-09-17T14:20:30.681Z,29.92
2018-09-17T14:22:59.909Z,29.68
2018-09-17T14:25:29.152Z,29.60
2018-09-17T14:27:58.104Z,29.51
2018-09-17T14:30:28.017Z,29.53
2018-09-17T14:33:02.364Z,29.36
2018-09-17T14:35:31.486Z,29.37
2018-09-17T14:38:00.388Z,29.24
2018-09-17T14:40:31.272Z,29.16
2018-09-17T14:43:00.703Z,29.11
2018-09-17T14:45:30.080Z,28.94
2018-09-17T14:47:59.335Z,28.89
2018-09-17T14:50:28.547Z,28.81
2018-09-17T14:52:57.834Z,28.72
2018-09-17T14:55:26.972Z,28.65
2018-09-17T14:57:56.413Z,28.57
2018-09-17T15:00:25.530Z,28.47
2018-09-17T15:02:54.864Z,28.43
2018-09-17T15:05:24.265Z,28.30
2018-09-17T15:07:53.636Z,28.17
2018-09-17T15:10:22.887Z,28.17
2018-09-17T15:12:52.091Z,28.14
2018-09-17T15:15:21.176Z,28.07
2018-09-17T15:17:50.352Z,27.97
2018-09-17T15:20:19.737Z,27.88
2018-09-17T15:22:49.083Z,27.82
2018-09-17T15:25:18.371Z,27.73
2018-09-17T15:27:47.828Z,27.65
2018-09-17T15:30:17.227Z,27.62
2018-09-17T15:32:46.596Z,27.62
2018-09-17T15:35:15.621Z,27.50
2018-09-17T15:37:44.883Z,27.30
2018-09-17T15:40:14.084Z,27.42
2018-09-17T15:42:43.243Z,27.47
2018-09-17T15:45:12.613Z,27.21
2018-09-17T15:47:41.905Z,27.17
2018-09-17T15:50:11.507Z,27.13
2018-09-17T15:52:40.809Z,27.07
2018-09-17T15:55:10.003Z,26.88
2018-09-17T15:57:38.950Z,26.79
2018-09-17T16:00:08.427Z,26.72
2018-09-17T16:02:37.729Z,26.74
2018-09-17T16:05:07.331Z,26.63
2018-09-17T16:07:36.676Z,26.54
2018-09-17T16:10:06.452Z,26.51
2018-09-17T16:12:35.927Z,26.36
2018-09-17T16:15:05.172Z,26.31
2018-09-17T16:17:34.483Z,26.28
2018-09-17T16:20:03.859Z,26.17
2018-09-17T16:22:33.172Z,26.13
2018-09-17T16:25:02.531Z,26.04
2018-09-17T16:27:31.862Z,25.88
2018-09-17T16:30:01.056Z,25.80
2018-09-17T16:32:30.110Z,25.75
2018-09-17T16:34:59.416Z,25.59
2018-09-17T16:37:29.004Z,25.55
2018-09-17T16:39:58.519Z,25.48
2018-09-17T16:42:27.924Z,25.34
2018-09-17T16:44:57.317Z,25.36
2018-09-17T16:47:26.653Z,25.31
2018-09-17T16:49:55.821Z,25.24
2018-09-17T16:52:24.687Z,25.15
2018-09-17T16:54:54.166Z,25.05
2018-09-17T16:57:23.403Z,24.97
2018-09-17T16:59:52.508Z,24.94
2018-09-17T17:02:21.837Z,24.87
2018-09-17T17:04:51.050Z,24.78
2018-09-17T17:07:20.356Z,24.68
2018-09-17T17:09:49.253Z,24.66
2018-09-17T17:12:18.284Z,24.59
2018-09-17T17:14:47.355Z,24.56
2018-09-17T17:17:16.823Z,24.51
2018-09-17T17:19:46.145Z,24.44
2018-09-17T17:22:15.649Z,24.39
2018-09-17T17:24:45.092Z,24.31
2018-09-17T17:27:14.386Z,24.32
2018-09-17T17:29:43.373Z,24.28
2018-09-17T17:32:12.266Z,24.26
2018-09-17T17:34:41.719Z,24.19
2018-09-17T17:37:10.911Z,24.19
2018-09-17T17:39:40.336Z,24.17
2018-09-17T17:42:09.556Z,24.11
2018-09-17T17:44:38.858Z,24.07
2018-09-17T17:47:08.171Z,24.07
2018-09-17T17:49:37.325Z,24.03
2018-09-17T17:52:07.223Z,24.04
2018-09-17T17:54:36.269Z,24.02
2018-09-17T17:57:05.600Z,23.97
2018-09-17T17:59:34.827Z,23.89
2018-09-17T18:02:04.220Z,23.93
2018-09-17T18:04:33.144Z,23.88
2018-09-17T18:07:02.664Z,23.85
2018-09-17T18:09:31.952Z,23.74
2018-09-17T18:12:01.946Z,23.71
2018-09-17T18:14:31.843Z,23.65
2018-09-17T18:17:01.355Z,23.56
2018-09-17T18:19:31.792Z,23.49
2018-09-17T18:22:01.064Z,23.38
2018-09-17T18:24:30.404Z,23.28
2018-09-17T18:26:59.917Z,23.23
2018-09-17T18:29:29.412Z,23.17
2018-09-17T18:31:58.807Z,23.06
2018-09-17T18:34:28.153Z,22.99
2018-09-17T18:36:58.836Z,22.94
2018-09-17T18:39:29.333Z,22.99
2018-09-17T18:41:58.327Z,22.95
2018-09-17T18:44:27.507Z,22.93
2018-09-17T18:46:56.959Z,22.85
2018-09-17T18:49:26.247Z,22.78
2018-09-17T18:51:55.472Z,22.66
2018-09-17T18:54:24.892Z,22.67
2018-09-17T18:56:54.132Z,22.58
2018-09-17T18:59:23.512Z,22.59
2018-09-17T19:01:52.695Z,22.73
2018-09-17T19:04:22.163Z,22.77
2018-09-17T19:06:52.180Z,22.84
2018-09-17T19:09:25.683Z,22.85
2018-09-17T19:11:55.120Z,22.73
2018-09-17T19:14:29.710Z,22.77
2018-09-17T19:16:59.542Z,22.67
2018-09-17T19:19:31.430Z,22.52
2018-09-17T19:23:08.453Z,22.51
2018-09-17T19:25:37.753Z,22.39
2018-09-17T19:28:11.839Z,22.35
2018-09-17T19:30:41.239Z,22.07
2018-09-17T19:33:10.129Z,22.16
2018-09-17T19:35:39.464Z,22.06
2018-09-17T19:38:13.914Z,22.20
2018-09-17T19:40:43.124Z,22.20
2018-09-17T19:43:12.173Z,22.18
2018-09-17T19:45:46.318Z,22.15
2018-09-17T19:48:15.747Z,22.14
2018-09-17T19:50:49.681Z,22.01
2018-09-17T19:53:19.088Z,21.85
2018-09-17T19:55:48.712Z,21.80
2018-09-17T19:58:23.105Z,21.67
2018-09-17T20:00:52.725Z,21.74
2018-09-17T20:03:21.869Z,21.65
2018-09-17T20:05:56.238Z,21.66
2018-09-17T20:08:25.315Z,21.64
2018-09-17T20:10:54.435Z,21.51
2018-09-17T20:13:23.527Z,21.55
2018-09-17T20:15:52.879Z,21.63
2018-09-17T20:18:22.216Z,21.63
2018-09-17T20:20:51.070Z,21.50
2018-09-17T20:23:20.428Z,21.41
2018-09-17T20:25:49.754Z,21.33
2018-09-17T20:28:19.152Z,21.28
2018-09-17T20:30:48.308Z,21.28
2018-09-17T20:33:17.717Z,21.25
2018-09-17T20:35:47.054Z,21.11
2018-09-17T20:38:16.170Z,21.36
2018-09-17T20:40:45.370Z,21.37
2018-09-17T20:43:14.622Z,21.34
2018-09-17T20:45:43.960Z,21.34
2018-09-17T20:48:13.036Z,21.41
2018-09-17T20:50:42.393Z,21.44
2018-09-17T20:53:11.644Z,21.49
2018-09-17T20:55:40.844Z,21.48
2018-09-17T20:58:10.059Z,21.38
2018-09-17T21:00:39.385Z,21.52
2018-09-17T21:03:08.783Z,21.42
2018-09-17T21:05:38.083Z,21.49
2018-09-17T21:08:07.539Z,21.56
2018-09-17T21:10:37.052Z,21.55
2018-09-17T21:13:06.207Z,21.51
2018-09-17T21:15:35.497Z,21.44
2018-09-17T21:18:04.555Z,21.50
2018-09-17T21:20:33.857Z,21.45
2018-09-17T21:23:03.047Z,21.29
2018-09-17T21:25:32.319Z,21.16
2018-09-17T21:28:01.638Z,21.21
2018-09-17T21:30:30.935Z,21.08
2018-09-17T21:33:00.376Z,21.01
2018-09-17T21:35:29.720Z,20.90
2018-09-17T21:37:58.970Z,20.99
2018-09-17T21:40:28.311Z,20.92
2018-09-17T21:42:57.594Z,20.79
2018-09-17T21:45:26.708Z,20.66
2018-09-17T21:47:56.170Z,20.72
2018-09-17T21:50:25.458Z,20.69
2018-09-17T21:52:54.752Z,20.55
2018-09-17T21:55:23.957Z,20.53
2018-09-17T21:57:52.964Z,20.58
2018-09-17T22:00:22.259Z,20.58
2018-09-17T22:02:51.646Z,20.52
2018-09-17T22:05:20.936Z,20.45
2018-09-17T22:07:50.271Z,20.43
2018-09-17T22:10:19.431Z,20.40
2018-09-17T22:12:48.663Z,20.37
2018-09-17T22:15:17.702Z,20.43
2018-09-17T22:17:46.993Z,20.36
2018-09-17T22:20:16.235Z,20.37
2018-09-17T22:22:45.688Z,20.37
2018-09-17T22:25:14.934Z,20.19
2018-09-17T22:27:44.112Z,20.15
2018-09-17T22:30:13.625Z,20.23
2018-09-17T22:32:42.511Z,20.40
2018-09-17T22:35:12.043Z,20.43
2018-09-17T22:37:41.432Z,20.26
2018-09-17T22:40:10.630Z,20.25
2018-09-17T22:42:40.120Z,20.27
2018-09-17T22:45:09.290Z,20.19
2018-09-17T22:47:38.339Z,20.04
2018-09-17T22:50:07.777Z,19.89
2018-09-17T22:52:36.911Z,19.89
2018-09-17T22:55:06.275Z,19.93
2018-09-17T22:57:35.601Z,20.03
2018-09-17T23:00:05.008Z,20.09
2018-09-17T23:02:34.303Z,20.19
2018-09-17T23:05:03.334Z,20.18
2018-09-17T23:07:32.759Z,20.20
2018-09-17T23:10:01.590Z,20.19
2018-09-17T23:12:30.747Z,20.15
2018-09-17T23:15:00.101Z,20.12
2018-09-17T23:17:29.600Z,20.07
2018-09-17T23:19:58.808Z,20.02
2018-09-17T23:22:28.029Z,19.95
2018-09-17T23:24:57.315Z,19.96
2018-09-17T23:27:26.591Z,20.00
2018-09-17T23:29:55.948Z,19.92
2018-09-17T23:32:25.239Z,19.88
2018-09-17T23:34:54.256Z,19.77
2018-09-17T23:37:23.422Z,19.81
2018-09-17T23:39:52.483Z,19.69
2018-09-17T23:42:21.821Z,19.49
2018-09-17T23:44:51.024Z,19.53
2018-09-17T23:47:20.268Z,19.59
2018-09-17T23:49:49.662Z,19.58
2018-09-17T23:52:19.067Z,19.54
2018-09-17T23:54:48.279Z,19.57
2018-09-17T23:57:17.568Z,19.42
2018-09-17T23:59:46.771Z,19.41
